sensor_id;sensor_type;location;lat;lon;timestamp;P1;durP1;ratioP1;P2;durP2;ratioP2
68432;SDS011;55412;51.350;17.056;2022-09-17T00:01:02;2.63;;;0.50;;
68432;SDS011;55412;51.350;17.056;2022-09-17T00:03:29;3.13;;;0.50;;
68432;SDS011;55412;51.350;17.056;2022-09-17T00:06:03;2.95;;;0.30;;
68432;SDS011;55412;51.350;17.056;2022-09-17T00:08:32;2.92;;;0.40;;
68432;SDS011;55412;51.350;17.056;2022-09-17T00:11:07;3.27;;;0.60;;
68432;SDS011;55412;51.350;17.056;2022-09-17T00:13:41;6.45;;;0.98;;
68432;SDS011;55412;51.350;17.056;2022-09-17T00:16:09;7.30;;;0.50;;
68432;SDS011;55412;51.350;17.056;2022-09-17T00:18:36;2.20;;;0.55;;
68432;SDS011;55412;51.350;17.056;2022-09-17T00:21:05;5.18;;;1.20;;
68432;SDS011;55412;51.350;17.056;2022-09-17T00:23:40;2.43;;;0.33;;
68432;SDS011;55412;51.350;17.056;2022-09-17T00:26:06;2.90;;;0.32;;
68432;SDS011;55412;51.350;17.056;2022-09-17T00:28:32;2.28;;;0.30;;
68432;SDS011;55412;51.350;17.056;2022-09-17T00:30:58;3.80;;;0.40;;
68432;SDS011;55412;51.350;17.056;2022-09-17T00:33:24;2.97;;;0.40;;
68432;SDS011;55412;51.350;17.056;2022-09-17T00:35:57;4.03;;;0.50;;
68432;SDS011;55412;51.350;17.056;2022-09-17T00:38:26;3.17;;;0.50;;
68432;SDS011;55412;51.350;17.056;2022-09-17T00:40:53;1.70;;;0.32;;
68432;SDS011;55412;51.350;17.056;2022-09-17T00:49:08;1.80;;;0.30;;
68432;SDS011;55412;51.350;17.056;2022-09-17T00:51:41;4.47;;;0.47;;
68432;SDS011;55412;51.350;17.056;2022-09-17T00:54:19;2.88;;;0.55;;
68432;SDS011;55412;51.350;17.056;2022-09-17T00:56:45;2.50;;;0.32;;
68432;SDS011;55412;51.350;17.056;2022-09-17T00:59:13;2.47;;;0.40;;
68432;SDS011;55412;51.350;17.056;2022-09-17T01:01:39;3.57;;;0.30;;
68432;SDS011;55412;51.350;17.056;2022-09-17T01:04:06;4.28;;;0.32;;
68432;SDS011;55412;51.350;17.056;2022-09-17T01:06:47;4.40;;;0.47;;
68432;SDS011;55412;51.350;17.056;2022-09-17T01:19:28;2.88;;;0.32;;
68432;SDS011;55412;51.350;17.056;2022-09-17T01:21:50;1.98;;;0.30;;
68432;SDS011;55412;51.350;17.056;2022-09-17T01:32:59;4.70;;;0.55;;
68432;SDS011;55412;51.350;17.056;2022-09-17T01:36:05;4.70;;;0.50;;
68432;SDS011;55412;51.350;17.056;2022-09-17T01:38:53;4.22;;;0.57;;
68432;SDS011;55412;51.350;17.056;2022-09-17T01:41:56;2.92;;;0.40;;
68432;SDS011;55412;51.350;17.056;2022-09-17T01:47:25;5.97;;;0.60;;
68432;SDS011;55412;51.350;17.056;2022-09-17T01:50:24;3.33;;;0.45;;
68432;SDS011;55412;51.350;17.056;2022-09-17T01:53:13;3.45;;;0.20;;
68432;SDS011;55412;51.350;17.056;2022-09-17T01:55:44;3.03;;;0.30;;
68432;SDS011;55412;51.350;17.056;2022-09-17T01:58:17;4.73;;;0.30;;
68432;SDS011;55412;51.350;17.056;2022-09-17T02:00:51;2.67;;;0.60;;
68432;SDS011;55412;51.350;17.056;2022-09-17T02:03:24;5.03;;;0.60;;
68432;SDS011;55412;51.350;17.056;2022-09-17T02:06:10;3.22;;;0.40;;
68432;SDS011;55412;51.350;17.056;2022-09-17T02:11:19;2.43;;;0.30;;
68432;SDS011;55412;51.350;17.056;2022-09-17T02:13:53;2.67;;;0.20;;
68432;SDS011;55412;51.350;17.056;2022-09-17T02:16:26;4.03;;;0.40;;
68432;SDS011;55412;51.350;17.056;2022-09-17T02:21:45;4.75;;;0.63;;
68432;SDS011;55412;51.350;17.056;2022-09-17T02:24:43;2.47;;;0.30;;
68432;SDS011;55412;51.350;17.056;2022-09-17T02:30:23;3.97;;;0.30;;
68432;SDS011;55412;51.350;17.056;2022-09-17T02:32:49;1.88;;;0.20;;
68432;SDS011;55412;51.350;17.056;2022-09-17T02:35:15;4.88;;;0.40;;
68432;SDS011;55412;51.350;17.056;2022-09-17T02:37:42;6.83;;;0.43;;
68432;SDS011;55412;51.350;17.056;2022-09-17T02:40:09;4.75;;;0.43;;
68432;SDS011;55412;51.350;17.056;2022-09-17T02:54:22;5.60;;;0.50;;
68432;SDS011;55412;51.350;17.056;2022-09-17T02:57:11;2.17;;;0.43;;
68432;SDS011;55412;51.350;17.056;2022-09-17T03:00:04;4.03;;;0.20;;
68432;SDS011;55412;51.350;17.056;2022-09-17T03:05:38;2.63;;;0.27;;
68432;SDS011;55412;51.350;17.056;2022-09-17T03:08:07;6.88;;;0.20;;
68432;SDS011;55412;51.350;17.056;2022-09-17T03:10:36;2.05;;;0.40;;
68432;SDS011;55412;51.350;17.056;2022-09-17T03:13:04;2.92;;;0.30;;
68432;SDS011;55412;51.350;17.056;2022-09-17T03:15:30;3.42;;;0.32;;
68432;SDS011;55412;51.350;17.056;2022-09-17T03:17:56;3.80;;;0.53;;
68432;SDS011;55412;51.350;17.056;2022-09-17T03:20:22;2.55;;;0.22;;
68432;SDS011;55412;51.350;17.056;2022-09-17T03:22:50;3.72;;;0.50;;
68432;SDS011;55412;51.350;17.056;2022-09-17T03:25:16;2.55;;;0.20;;
68432;SDS011;55412;51.350;17.056;2022-09-17T03:27:42;4.28;;;0.50;;
68432;SDS011;55412;51.350;17.056;2022-09-17T03:30:08;4.30;;;0.30;;
68432;SDS011;55412;51.350;17.056;2022-09-17T03:32:34;3.55;;;0.30;;
68432;SDS011;55412;51.350;17.056;2022-09-17T03:35:00;2.95;;;0.43;;
68432;SDS011;55412;51.350;17.056;2022-09-17T03:37:26;1.85;;;0.35;;
68432;SDS011;55412;51.350;17.056;2022-09-17T03:39:53;3.10;;;0.30;;
68432;SDS011;55412;51.350;17.056;2022-09-17T03:42:19;3.70;;;0.30;;
68432;SDS011;55412;51.350;17.056;2022-09-17T03:44:45;3.28;;;0.40;;
68432;SDS011;55412;51.350;17.056;2022-09-17T03:47:10;4.05;;;0.40;;
68432;SDS011;55412;51.350;17.056;2022-09-17T03:49:36;5.70;;;0.43;;
68432;SDS011;55412;51.350;17.056;2022-09-17T03:52:02;3.35;;;0.50;;
68432;SDS011;55412;51.350;17.056;2022-09-17T03:54:29;8.25;;;0.73;;
68432;SDS011;55412;51.350;17.056;2022-09-17T03:56:54;6.43;;;0.50;;
68432;SDS011;55412;51.350;17.056;2022-09-17T03:59:21;5.03;;;0.50;;
68432;SDS011;55412;51.350;17.056;2022-09-17T04:01:47;3.67;;;0.57;;
68432;SDS011;55412;51.350;17.056;2022-09-17T04:04:13;4.72;;;0.50;;
68432;SDS011;55412;51.350;17.056;2022-09-17T04:06:39;4.35;;;0.70;;
68432;SDS011;55412;51.350;17.056;2022-09-17T04:09:05;4.13;;;0.63;;
68432;SDS011;55412;51.350;17.056;2022-09-17T04:11:31;4.90;;;0.50;;
68432;SDS011;55412;51.350;17.056;2022-09-17T04:13:57;3.53;;;0.40;;
68432;SDS011;55412;51.350;17.056;2022-09-17T04:16:23;3.22;;;0.43;;
68432;SDS011;55412;51.350;17.056;2022-09-17T04:18:49;2.20;;;0.40;;
68432;SDS011;55412;51.350;17.056;2022-09-17T04:21:15;3.20;;;0.63;;
68432;SDS011;55412;51.350;17.056;2022-09-17T04:23:41;2.90;;;0.33;;
68432;SDS011;55412;51.350;17.056;2022-09-17T04:26:07;2.80;;;0.32;;
68432;SDS011;55412;51.350;17.056;2022-09-17T04:28:33;4.47;;;0.45;;
68432;SDS011;55412;51.350;17.056;2022-09-17T04:30:59;2.78;;;0.35;;
68432;SDS011;55412;51.350;17.056;2022-09-17T04:33:25;2.92;;;0.50;;
68432;SDS011;55412;51.350;17.056;2022-09-17T04:35:51;2.53;;;0.47;;
68432;SDS011;55412;51.350;17.056;2022-09-17T04:38:18;2.72;;;0.60;;
68432;SDS011;55412;51.350;17.056;2022-09-17T04:40:45;5.60;;;0.50;;
68432;SDS011;55412;51.350;17.056;2022-09-17T04:43:11;2.33;;;0.50;;
68432;SDS011;55412;51.350;17.056;2022-09-17T04:45:37;3.22;;;0.60;;
68432;SDS011;55412;51.350;17.056;2022-09-17T04:48:03;2.67;;;0.60;;
68432;SDS011;55412;51.350;17.056;2022-09-17T04:50:30;5.93;;;0.35;;
68432;SDS011;55412;51.350;17.056;2022-09-17T04:52:57;3.08;;;0.60;;
68432;SDS011;55412;51.350;17.056;2022-09-17T04:55:23;3.90;;;0.30;;
68432;SDS011;55412;51.350;17.056;2022-09-17T04:57:51;4.05;;;0.70;;
68432;SDS011;55412;51.350;17.056;2022-09-17T05:00:18;3.57;;;0.50;;
68432;SDS011;55412;51.350;17.056;2022-09-17T05:02:47;4.28;;;0.60;;
68432;SDS011;55412;51.350;17.056;2022-09-17T05:05:15;4.70;;;0.70;;
68432;SDS011;55412;51.350;17.056;2022-09-17T05:07:42;3.47;;;0.80;;
68432;SDS011;55412;51.350;17.056;2022-09-17T05:10:09;4.18;;;0.90;;
68432;SDS011;55412;51.350;17.056;2022-09-17T05:12:36;2.83;;;0.67;;
68432;SDS011;55412;51.350;17.056;2022-09-17T05:15:03;3.22;;;0.60;;
68432;SDS011;55412;51.350;17.056;2022-09-17T05:17:30;2.90;;;0.50;;
68432;SDS011;55412;51.350;17.056;2022-09-17T05:19:56;4.05;;;0.80;;
68432;SDS011;55412;51.350;17.056;2022-09-17T05:22:22;3.17;;;0.70;;
68432;SDS011;55412;51.350;17.056;2022-09-17T05:24:48;4.97;;;0.70;;
68432;SDS011;55412;51.350;17.056;2022-09-17T05:27:14;8.10;;;0.95;;
68432;SDS011;55412;51.350;17.056;2022-09-17T05:29:40;4.22;;;0.85;;
68432;SDS011;55412;51.350;17.056;2022-09-17T05:32:06;3.35;;;0.90;;
68432;SDS011;55412;51.350;17.056;2022-09-17T05:34:32;3.83;;;0.70;;
68432;SDS011;55412;51.350;17.056;2022-09-17T05:36:58;3.67;;;0.70;;
68432;SDS011;55412;51.350;17.056;2022-09-17T05:39:24;3.38;;;0.60;;
68432;SDS011;55412;51.350;17.056;2022-09-17T05:41:51;3.85;;;0.52;;
68432;SDS011;55412;51.350;17.056;2022-09-17T05:44:17;4.15;;;0.60;;
68432;SDS011;55412;51.350;17.056;2022-09-17T05:46:44;4.20;;;0.80;;
68432;SDS011;55412;51.350;17.056;2022-09-17T05:49:11;4.18;;;0.47;;
68432;SDS011;55412;51.350;17.056;2022-09-17T05:51:39;3.15;;;0.63;;
68432;SDS011;55412;51.350;17.056;2022-09-17T05:54:06;4.65;;;0.68;;
68432;SDS011;55412;51.350;17.056;2022-09-17T05:56:33;5.20;;;0.90;;
68432;SDS011;55412;51.350;17.056;2022-09-17T05:58:59;2.67;;;0.73;;
68432;SDS011;55412;51.350;17.056;2022-09-17T06:01:26;5.47;;;0.77;;
68432;SDS011;55412;51.350;17.056;2022-09-17T06:03:52;3.08;;;0.90;;
68432;SDS011;55412;51.350;17.056;2022-09-17T06:06:18;4.05;;;0.90;;
68432;SDS011;55412;51.350;17.056;2022-09-17T06:08:44;4.53;;;0.93;;
68432;SDS011;55412;51.350;17.056;2022-09-17T06:11:10;3.17;;;0.60;;
68432;SDS011;55412;51.350;17.056;2022-09-17T06:13:36;5.78;;;1.13;;
68432;SDS011;55412;51.350;17.056;2022-09-17T06:16:03;4.00;;;0.82;;
68432;SDS011;55412;51.350;17.056;2022-09-17T06:18:29;3.75;;;0.60;;
68432;SDS011;55412;51.350;17.056;2022-09-17T06:20:57;5.60;;;0.70;;
68432;SDS011;55412;51.350;17.056;2022-09-17T06:23:25;5.13;;;1.13;;
68432;SDS011;55412;51.350;17.056;2022-09-17T06:25:52;3.88;;;0.80;;
68432;SDS011;55412;51.350;17.056;2022-09-17T06:28:21;2.95;;;0.60;;
68432;SDS011;55412;51.350;17.056;2022-09-17T06:30:47;6.78;;;1.15;;
68432;SDS011;55412;51.350;17.056;2022-09-17T06:33:13;6.30;;;1.20;;
68432;SDS011;55412;51.350;17.056;2022-09-17T06:35:40;4.33;;;1.10;;
68432;SDS011;55412;51.350;17.056;2022-09-17T06:38:06;4.90;;;0.85;;
68432;SDS011;55412;51.350;17.056;2022-09-17T06:40:33;5.20;;;1.00;;
68432;SDS011;55412;51.350;17.056;2022-09-17T06:42:59;8.15;;;1.20;;
68432;SDS011;55412;51.350;17.056;2022-09-17T06:45:25;4.80;;;0.90;;
68432;SDS011;55412;51.350;17.056;2022-09-17T06:47:51;5.83;;;1.07;;
68432;SDS011;55412;51.350;17.056;2022-09-17T06:50:18;3.88;;;0.60;;
68432;SDS011;55412;51.350;17.056;2022-09-17T06:52:51;4.32;;;0.90;;
68432;SDS011;55412;51.350;17.056;2022-09-17T06:55:19;6.22;;;1.63;;
68432;SDS011;55412;51.350;17.056;2022-09-17T06:57:45;4.68;;;0.95;;
68432;SDS011;55412;51.350;17.056;2022-09-17T07:00:12;5.67;;;1.07;;
68432;SDS011;55412;51.350;17.056;2022-09-17T07:02:39;6.70;;;1.58;;
68432;SDS011;55412;51.350;17.056;2022-09-17T07:05:06;4.40;;;1.00;;
68432;SDS011;55412;51.350;17.056;2022-09-17T07:07:33;4.20;;;0.85;;
68432;SDS011;55412;51.350;17.056;2022-09-17T07:10:00;5.25;;;1.10;;
68432;SDS011;55412;51.350;17.056;2022-09-17T07:12:27;4.87;;;1.33;;
68432;SDS011;55412;51.350;17.056;2022-09-17T07:14:52;3.88;;;1.40;;
68432;SDS011;55412;51.350;17.056;2022-09-17T07:17:19;5.57;;;1.10;;
68432;SDS011;55412;51.350;17.056;2022-09-17T07:19:45;6.72;;;1.02;;
68432;SDS011;55412;51.350;17.056;2022-09-17T07:22:11;7.30;;;1.03;;
68432;SDS011;55412;51.350;17.056;2022-09-17T07:24:38;5.82;;;0.80;;
68432;SDS011;55412;51.350;17.056;2022-09-17T07:27:04;8.65;;;1.65;;
68432;SDS011;55412;51.350;17.056;2022-09-17T07:29:32;4.38;;;1.33;;
68432;SDS011;55412;51.350;17.056;2022-09-17T07:31:58;4.20;;;0.63;;
68432;SDS011;55412;51.350;17.056;2022-09-17T07:34:24;3.07;;;0.70;;
68432;SDS011;55412;51.350;17.056;2022-09-17T07:36:53;7.80;;;1.70;;
68432;SDS011;55412;51.350;17.056;2022-09-17T07:39:19;5.22;;;1.23;;
68432;SDS011;55412;51.350;17.056;2022-09-17T07:41:45;4.45;;;0.90;;
68432;SDS011;55412;51.350;17.056;2022-09-17T07:44:11;5.50;;;1.20;;
68432;SDS011;55412;51.350;17.056;2022-09-17T07:46:37;4.63;;;1.23;;
68432;SDS011;55412;51.350;17.056;2022-09-17T07:49:03;7.03;;;1.10;;
68432;SDS011;55412;51.350;17.056;2022-09-17T07:51:29;7.60;;;1.00;;
68432;SDS011;55412;51.350;17.056;2022-09-17T07:53:56;5.88;;;0.90;;
68432;SDS011;55412;51.350;17.056;2022-09-17T07:56:24;4.37;;;0.97;;
68432;SDS011;55412;51.350;17.056;2022-09-17T07:58:51;5.13;;;0.93;;
68432;SDS011;55412;51.350;17.056;2022-09-17T08:01:18;4.55;;;1.27;;
68432;SDS011;55412;51.350;17.056;2022-09-17T08:03:47;5.22;;;1.02;;
68432;SDS011;55412;51.350;17.056;2022-09-17T08:06:17;6.55;;;1.15;;
68432;SDS011;55412;51.350;17.056;2022-09-17T08:08:46;5.03;;;0.70;;
68432;SDS011;55412;51.350;17.056;2022-09-17T08:11:14;3.38;;;0.80;;
68432;SDS011;55412;51.350;17.056;2022-09-17T08:13:49;5.07;;;1.00;;
68432;SDS011;55412;51.350;17.056;2022-09-17T08:16:17;4.82;;;1.10;;
68432;SDS011;55412;51.350;17.056;2022-09-17T08:18:45;4.40;;;1.05;;
68432;SDS011;55412;51.350;17.056;2022-09-17T08:21:14;4.73;;;1.00;;
68432;SDS011;55412;51.350;17.056;2022-09-17T08:23:43;4.32;;;0.70;;
68432;SDS011;55412;51.350;17.056;2022-09-17T08:26:13;3.22;;;0.73;;
68432;SDS011;55412;51.350;17.056;2022-09-17T08:28:45;6.70;;;0.77;;
68432;SDS011;55412;51.350;17.056;2022-09-17T08:31:14;5.32;;;1.42;;
68432;SDS011;55412;51.350;17.056;2022-09-17T08:33:44;3.50;;;0.83;;
68432;SDS011;55412;51.350;17.056;2022-09-17T08:36:12;3.17;;;0.70;;
68432;SDS011;55412;51.350;17.056;2022-09-17T08:38:41;7.10;;;0.70;;
68432;SDS011;55412;51.350;17.056;2022-09-17T08:41:18;5.82;;;0.88;;
68432;SDS011;55412;51.350;17.056;2022-09-17T08:44:03;2.60;;;0.70;;
68432;SDS011;55412;51.350;17.056;2022-09-17T08:46:43;6.13;;;0.40;;
68432;SDS011;55412;51.350;17.056;2022-09-17T08:57:46;4.20;;;0.90;;
68432;SDS011;55412;51.350;17.056;2022-09-17T09:00:26;3.77;;;0.83;;
68432;SDS011;55412;51.350;17.056;2022-09-17T09:06:29;3.90;;;0.90;;
68432;SDS011;55412;51.350;17.056;2022-09-17T09:09:03;4.50;;;1.17;;
68432;SDS011;55412;51.350;17.056;2022-09-17T09:11:35;4.05;;;1.20;;
68432;SDS011;55412;51.350;17.056;2022-09-17T09:14:26;5.83;;;0.90;;
68432;SDS011;55412;51.350;17.056;2022-09-17T09:16:53;3.13;;;0.70;;
68432;SDS011;55412;51.350;17.056;2022-09-17T09:28:05;5.47;;;0.93;;
68432;SDS011;55412;51.350;17.056;2022-09-17T09:33:37;4.28;;;1.40;;
68432;SDS011;55412;51.350;17.056;2022-09-17T09:36:07;4.15;;;1.35;;
68432;SDS011;55412;51.350;17.056;2022-09-17T09:38:42;4.75;;;1.63;;
68432;SDS011;55412;51.350;17.056;2022-09-17T09:41:59;4.70;;;1.43;;
68432;SDS011;55412;51.350;17.056;2022-09-17T09:44:29;5.28;;;1.65;;
68432;SDS011;55412;51.350;17.056;2022-09-17T09:47:05;5.55;;;1.80;;
68432;SDS011;55412;51.350;17.056;2022-09-17T09:58:56;5.30;;;1.92;;
68432;SDS011;55412;51.350;17.056;2022-09-17T10:01:24;5.50;;;1.67;;
68432;SDS011;55412;51.350;17.056;2022-09-17T10:03:53;4.13;;;1.10;;
68432;SDS011;55412;51.350;17.056;2022-09-17T10:06:22;5.10;;;1.23;;
68432;SDS011;55412;51.350;17.056;2022-09-17T10:11:22;5.03;;;1.15;;
68432;SDS011;55412;51.350;17.056;2022-09-17T10:13:51;3.92;;;1.20;;
68432;SDS011;55412;51.350;17.056;2022-09-17T10:16:24;5.03;;;1.80;;
68432;SDS011;55412;51.350;17.056;2022-09-17T10:21:34;4.40;;;1.10;;
68432;SDS011;55412;51.350;17.056;2022-09-17T10:24:48;8.38;;;1.83;;
68432;SDS011;55412;51.350;17.056;2022-09-17T10:27:03;6.68;;;1.40;;
68432;SDS011;55412;51.350;17.056;2022-09-17T10:29:35;7.30;;;1.67;;
68432;SDS011;55412;51.350;17.056;2022-09-17T10:32:17;5.90;;;1.95;;
68432;SDS011;55412;51.350;17.056;2022-09-17T10:34:59;4.27;;;1.33;;
68432;SDS011;55412;51.350;17.056;2022-09-17T10:37:43;3.60;;;1.50;;
68432;SDS011;55412;51.350;17.056;2022-09-17T10:45:24;5.63;;;1.63;;
68432;SDS011;55412;51.350;17.056;2022-09-17T10:47:52;5.97;;;1.40;;
68432;SDS011;55412;51.350;17.056;2022-09-17T10:52:57;4.70;;;1.80;;
68432;SDS011;55412;51.350;17.056;2022-09-17T11:06:54;3.10;;;0.90;;
68432;SDS011;55412;51.350;17.056;2022-09-17T11:12:49;3.40;;;1.20;;
68432;SDS011;55412;51.350;17.056;2022-09-17T11:29:43;3.37;;;0.73;;
68432;SDS011;55412;51.350;17.056;2022-09-17T11:35:40;12.85;;;1.40;;
68432;SDS011;55412;51.350;17.056;2022-09-17T11:38:22;3.97;;;0.80;;
68432;SDS011;55412;51.350;17.056;2022-09-17T11:41:19;6.80;;;1.00;;
68432;SDS011;55412;51.350;17.056;2022-09-17T11:44:02;5.33;;;1.20;;
68432;SDS011;55412;51.350;17.056;2022-09-17T11:46:58;3.47;;;0.75;;
68432;SDS011;55412;51.350;17.056;2022-09-17T11:50:08;9.73;;;1.50;;
68432;SDS011;55412;51.350;17.056;2022-09-17T11:52:56;6.80;;;0.90;;
68432;SDS011;55412;51.350;17.056;2022-09-17T11:55:53;6.13;;;0.85;;
68432;SDS011;55412;51.350;17.056;2022-09-17T12:01:19;3.33;;;0.88;;
68432;SDS011;55412;51.350;17.056;2022-09-17T12:04:12;4.43;;;0.82;;
68432;SDS011;55412;51.350;17.056;2022-09-17T12:07:03;3.53;;;0.90;;
68432;SDS011;55412;51.350;17.056;2022-09-17T12:09:56;7.95;;;0.90;;
68432;SDS011;55412;51.350;17.056;2022-09-17T12:12:34;4.40;;;0.90;;
68432;SDS011;55412;51.350;17.056;2022-09-17T12:15:13;3.92;;;1.08;;
68432;SDS011;55412;51.350;17.056;2022-09-17T12:18:03;3.25;;;0.75;;
68432;SDS011;55412;51.350;17.056;2022-09-17T12:20:54;3.55;;;0.70;;
68432;SDS011;55412;51.350;17.056;2022-09-17T12:52:58;2.80;;;0.52;;
68432;SDS011;55412;51.350;17.056;2022-09-17T12:59:09;2.65;;;0.50;;
68432;SDS011;55412;51.350;17.056;2022-09-17T13:02:03;2.45;;;0.50;;
68432;SDS011;55412;51.350;17.056;2022-09-17T13:08:28;2.13;;;0.57;;
68432;SDS011;55412;51.350;17.056;2022-09-17T13:11:17;2.77;;;0.47;;
68432;SDS011;55412;51.350;17.056;2022-09-17T13:17:06;3.70;;;0.60;;
68432;SDS011;55412;51.350;17.056;2022-09-17T13:22:50;3.10;;;0.77;;
68432;SDS011;55412;51.350;17.056;2022-09-17T13:25:19;3.23;;;0.70;;
68432;SDS011;55412;51.350;17.056;2022-09-17T13:27:46;3.20;;;0.68;;
68432;SDS011;55412;51.350;17.056;2022-09-17T13:30:14;5.78;;;0.50;;
68432;SDS011;55412;51.350;17.056;2022-09-17T13:32:43;3.47;;;0.55;;
68432;SDS011;55412;51.350;17.056;2022-09-17T13:40:25;2.80;;;0.30;;
68432;SDS011;55412;51.350;17.056;2022-09-17T13:46:19;2.60;;;0.70;;
68432;SDS011;55412;51.350;17.056;2022-09-17T13:48:24;3.10;;;0.60;;
68432;SDS011;55412;51.350;17.056;2022-09-17T13:50:53;2.83;;;0.60;;
68432;SDS011;55412;51.350;17.056;2022-09-17T13:53:21;3.53;;;0.65;;
68432;SDS011;55412;51.350;17.056;2022-09-17T13:55:52;5.38;;;0.70;;
68432;SDS011;55412;51.350;17.056;2022-09-17T13:58:22;3.10;;;0.65;;
68432;SDS011;55412;51.350;17.056;2022-09-17T14:01:02;1.73;;;0.30;;
68432;SDS011;55412;51.350;17.056;2022-09-17T14:16:44;3.57;;;0.50;;
68432;SDS011;55412;51.350;17.056;2022-09-17T14:22:16;3.60;;;0.40;;
68432;SDS011;55412;51.350;17.056;2022-09-17T14:24:50;3.58;;;0.80;;
68432;SDS011;55412;51.350;17.056;2022-09-17T14:32:39;3.08;;;0.65;;
68432;SDS011;55412;51.350;17.056;2022-09-17T14:35:14;3.58;;;0.60;;
68432;SDS011;55412;51.350;17.056;2022-09-17T14:38:10;6.03;;;0.88;;
68432;SDS011;55412;51.350;17.056;2022-09-17T14:41:03;3.15;;;0.63;;
68432;SDS011;55412;51.350;17.056;2022-09-17T14:43:45;3.90;;;0.70;;
68432;SDS011;55412;51.350;17.056;2022-09-17T14:49:22;4.20;;;0.70;;
68432;SDS011;55412;51.350;17.056;2022-09-17T14:51:53;5.25;;;0.88;;
68432;SDS011;55412;51.350;17.056;2022-09-17T14:54:22;5.05;;;0.55;;
68432;SDS011;55412;51.350;17.056;2022-09-17T14:56:59;4.40;;;1.00;;
68432;SDS011;55412;51.350;17.056;2022-09-17T14:59:59;4.93;;;0.60;;
68432;SDS011;55412;51.350;17.056;2022-09-17T15:02:37;5.72;;;0.50;;
68432;SDS011;55412;51.350;17.056;2022-09-17T15:05:23;5.78;;;0.75;;
68432;SDS011;55412;51.350;17.056;2022-09-17T15:13:27;4.57;;;0.68;;
68432;SDS011;55412;51.350;17.056;2022-09-17T15:16:24;3.95;;;0.80;;
68432;SDS011;55412;51.350;17.056;2022-09-17T15:18:52;3.00;;;0.75;;
68432;SDS011;55412;51.350;17.056;2022-09-17T15:21:44;2.25;;;0.50;;
68432;SDS011;55412;51.350;17.056;2022-09-17T15:27:03;3.70;;;0.60;;
68432;SDS011;55412;51.350;17.056;2022-09-17T15:29:40;3.13;;;0.60;;
68432;SDS011;55412;51.350;17.056;2022-09-17T15:32:11;2.97;;;0.65;;
68432;SDS011;55412;51.350;17.056;2022-09-17T15:34:38;3.40;;;0.73;;
68432;SDS011;55412;51.350;17.056;2022-09-17T15:37:24;8.90;;;0.70;;
68432;SDS011;55412;51.350;17.056;2022-09-17T15:39:52;3.85;;;0.65;;
68432;SDS011;55412;51.350;17.056;2022-09-17T15:42:24;1.58;;;0.20;;
68432;SDS011;55412;51.350;17.056;2022-09-17T15:48:00;2.72;;;0.52;;
68432;SDS011;55412;51.350;17.056;2022-09-17T15:50:30;4.20;;;0.50;;
68432;SDS011;55412;51.350;17.056;2022-09-17T15:55:37;3.38;;;0.30;;
68432;SDS011;55412;51.350;17.056;2022-09-17T15:58:25;3.75;;;0.57;;
68432;SDS011;55412;51.350;17.056;2022-09-17T16:08:48;2.40;;;0.40;;
68432;SDS011;55412;51.350;17.056;2022-09-17T16:11:29;2.72;;;0.50;;
68432;SDS011;55412;51.350;17.056;2022-09-17T16:13:57;2.78;;;0.40;;
68432;SDS011;55412;51.350;17.056;2022-09-17T16:18:59;3.72;;;0.57;;
68432;SDS011;55412;51.350;17.056;2022-09-17T16:21:26;2.65;;;0.35;;
68432;SDS011;55412;51.350;17.056;2022-09-17T16:23:52;3.45;;;0.50;;
68432;SDS011;55412;51.350;17.056;2022-09-17T16:26:22;38.92;;;2.13;;
68432;SDS011;55412;51.350;17.056;2022-09-17T16:28:53;4.07;;;0.70;;
68432;SDS011;55412;51.350;17.056;2022-09-17T16:31:27;3.13;;;0.40;;
68432;SDS011;55412;51.350;17.056;2022-09-17T16:33:54;3.40;;;0.77;;
68432;SDS011;55412;51.350;17.056;2022-09-17T16:36:20;3.20;;;0.50;;
68432;SDS011;55412;51.350;17.056;2022-09-17T16:38:46;3.75;;;0.50;;
68432;SDS011;55412;51.350;17.056;2022-09-17T16:41:12;2.93;;;0.53;;
68432;SDS011;55412;51.350;17.056;2022-09-17T16:43:38;2.72;;;0.43;;
68432;SDS011;55412;51.350;17.056;2022-09-17T16:46:05;8.07;;;0.50;;
68432;SDS011;55412;51.350;17.056;2022-09-17T16:48:34;5.07;;;0.60;;
68432;SDS011;55412;51.350;17.056;2022-09-17T16:51:07;3.63;;;0.80;;
68432;SDS011;55412;51.350;17.056;2022-09-17T16:53:38;4.60;;;0.50;;
68432;SDS011;55412;51.350;17.056;2022-09-17T16:56:05;3.30;;;0.55;;
68432;SDS011;55412;51.350;17.056;2022-09-17T16:58:36;3.75;;;0.80;;
68432;SDS011;55412;51.350;17.056;2022-09-17T17:01:09;6.95;;;0.80;;
68432;SDS011;55412;51.350;17.056;2022-09-17T17:03:37;4.43;;;0.40;;
68432;SDS011;55412;51.350;17.056;2022-09-17T17:06:04;4.65;;;0.75;;
68432;SDS011;55412;51.350;17.056;2022-09-17T17:08:31;4.25;;;0.60;;
68432;SDS011;55412;51.350;17.056;2022-09-17T17:10:58;4.93;;;0.88;;
68432;SDS011;55412;51.350;17.056;2022-09-17T17:13:25;5.68;;;0.80;;
68432;SDS011;55412;51.350;17.056;2022-09-17T17:15:52;6.33;;;1.00;;
68432;SDS011;55412;51.350;17.056;2022-09-17T17:18:19;4.53;;;0.60;;
68432;SDS011;55412;51.350;17.056;2022-09-17T17:20:45;3.10;;;0.60;;
68432;SDS011;55412;51.350;17.056;2022-09-17T17:23:12;3.90;;;0.40;;
68432;SDS011;55412;51.350;17.056;2022-09-17T17:25:39;3.80;;;0.70;;
68432;SDS011;55412;51.350;17.056;2022-09-17T17:28:05;3.97;;;0.40;;
68432;SDS011;55412;51.350;17.056;2022-09-17T17:30:31;2.85;;;0.47;;
68432;SDS011;55412;51.350;17.056;2022-09-17T17:32:57;5.63;;;0.50;;
68432;SDS011;55412;51.350;17.056;2022-09-17T17:35:28;7.10;;;0.60;;
68432;SDS011;55412;51.350;17.056;2022-09-17T17:37:54;2.70;;;0.47;;
68432;SDS011;55412;51.350;17.056;2022-09-17T17:40:20;5.40;;;0.60;;
68432;SDS011;55412;51.350;17.056;2022-09-17T17:42:50;3.83;;;0.70;;
68432;SDS011;55412;51.350;17.056;2022-09-17T17:45:16;4.85;;;0.55;;
68432;SDS011;55412;51.350;17.056;2022-09-17T17:47:42;9.48;;;0.60;;
68432;SDS011;55412;51.350;17.056;2022-09-17T17:50:08;4.97;;;0.40;;
68432;SDS011;55412;51.350;17.056;2022-09-17T17:52:34;4.50;;;0.40;;
68432;SDS011;55412;51.350;17.056;2022-09-17T17:55:03;6.07;;;0.60;;
68432;SDS011;55412;51.350;17.056;2022-09-17T17:57:30;3.63;;;0.60;;
68432;SDS011;55412;51.350;17.056;2022-09-17T17:59:56;4.22;;;0.40;;
68432;SDS011;55412;51.350;17.056;2022-09-17T18:02:22;4.77;;;0.40;;
68432;SDS011;55412;51.350;17.056;2022-09-17T18:04:48;2.70;;;0.30;;
68432;SDS011;55412;51.350;17.056;2022-09-17T18:07:14;4.32;;;0.50;;
68432;SDS011;55412;51.350;17.056;2022-09-17T18:09:40;4.65;;;0.75;;
68432;SDS011;55412;51.350;17.056;2022-09-17T18:12:06;2.50;;;0.35;;
68432;SDS011;55412;51.350;17.056;2022-09-17T18:14:33;5.70;;;0.40;;
68432;SDS011;55412;51.350;17.056;2022-09-17T18:16:59;3.20;;;0.30;;
68432;SDS011;55412;51.350;17.056;2022-09-17T18:19:25;2.85;;;0.55;;
68432;SDS011;55412;51.350;17.056;2022-09-17T18:21:52;4.07;;;0.30;;
68432;SDS011;55412;51.350;17.056;2022-09-17T18:24:18;6.18;;;0.80;;
68432;SDS011;55412;51.350;17.056;2022-09-17T18:26:45;2.50;;;0.30;;
68432;SDS011;55412;51.350;17.056;2022-09-17T18:29:11;2.90;;;0.47;;
68432;SDS011;55412;51.350;17.056;2022-09-17T18:31:37;2.78;;;0.35;;
68432;SDS011;55412;51.350;17.056;2022-09-17T18:34:04;4.30;;;0.60;;
68432;SDS011;55412;51.350;17.056;2022-09-17T18:36:34;2.90;;;0.50;;
68432;SDS011;55412;51.350;17.056;2022-09-17T18:39:03;4.43;;;0.47;;
68432;SDS011;55412;51.350;17.056;2022-09-17T18:41:33;4.68;;;0.52;;
68432;SDS011;55412;51.350;17.056;2022-09-17T18:44:03;5.82;;;0.35;;
68432;SDS011;55412;51.350;17.056;2022-09-17T18:46:33;3.85;;;0.50;;
68432;SDS011;55412;51.350;17.056;2022-09-17T18:49:00;2.72;;;0.30;;